Time;durP1;ratioP1;P1;durP2;ratioP2;P2;SDS_P1;SDS_P2;PMS_P1;PMS_P2;Temp;Humidity;BMP_temperature;BMP_pressure;BME280_temperature;BME280_humidity;BME280_pressure;Samples;Min_cycle;Max_cycle;Signal;HPM_P1;HPM_P2
2021/01/21 00:01:19;;;;;;;0.60;0.10;;;21.10;39.40;;;;;;5074957;28;20669;-46
2021/01/21 00:03:44;;;;;;;0.73;0.10;;;21.10;39.30;;;;;;5076822;28;20025;-46
2021/01/21 00:06:10;;;;;;;0.60;0.10;;;21.10;39.40;;;;;;5075072;28;20031;-47
2021/01/21 00:08:35;;;;;;;1.13;0.10;;;21.10;39.40;;;;;;5076388;28;20035;-48
2021/01/21 00:11:01;;;;;;;1.88;0.10;;;21.10;39.50;;;;;;5073594;28;20228;-46
2021/01/21 00:13:27;;;;;;;0.20;0.05;;;21.00;39.40;;;;;;5075282;28;20388;-47
2021/01/21 00:15:52;;;;;;;0.95;0.10;;;21.00;39.40;;;;;;5086560;22;20047;-54
2021/01/21 00:18:18;;;;;;;0.90;0.05;;;21.00;39.30;;;;;;5065078;28;20024;-53
2021/01/21 00:20:43;;;;;;;1.63;0.10;;;21.00;39.30;;;;;;5065089;28;20938;-55
2021/01/21 00:23:09;;;;;;;0.20;0.00;;;21.00;39.40;;;;;;5066651;28;20444;-54
2021/01/21 00:25:34;;;;;;;1.13;0.10;;;20.90;39.40;;;;;;5067075;28;20044;-54
2021/01/21 00:28:00;;;;;;;0.57;0.10;;;20.90;39.40;;;;;;5068718;28;20082;-54
2021/01/21 00:30:26;;;;;;;0.60;0.10;;;20.90;39.40;;;;;;5067660;28;20119;-54
2021/01/21 00:32:51;;;;;;;0.38;0.05;;;20.90;39.40;;;;;;5068991;28;20032;-54
2021/01/21 00:35:17;;;;;;;0.50;0.10;;;21.00;39.50;;;;;;5071179;28;20041;-54
2021/01/21 00:37:43;;;;;;;0.43;0.10;;;20.90;39.40;;;;;;5070994;28;20103;-55
2021/01/21 00:40:09;;;;;;;0.20;0.00;;;20.90;39.30;;;;;;5070496;28;20119;-54
2021/01/21 00:42:34;;;;;;;1.52;0.08;;;20.90;39.30;;;;;;5069658;28;20032;-55
2021/01/21 00:45:00;;;;;;;0.75;0.00;;;20.90;39.40;;;;;;5071376;28;20074;-54
2021/01/21 00:47:26;;;;;;;0.30;0.10;;;20.90;39.30;;;;;;5071722;28;20501;-55
2021/01/21 00:49:51;;;;;;;0.65;0.10;;;20.80;39.30;;;;;;5071662;28;20131;-52
2021/01/21 00:52:17;;;;;;;0.40;0.10;;;20.80;39.30;;;;;;5071843;28;20343;-53
2021/01/21 00:54:43;;;;;;;0.40;0.05;;;20.80;39.30;;;;;;5069794;28;20063;-55
2021/01/21 00:57:09;;;;;;;0.50;0.10;;;20.80;39.30;;;;;;5071486;28;20111;-55
2021/01/21 00:59:35;;;;;;;0.32;0.10;;;20.80;39.30;;;;;;5071557;28;21403;-55
2021/01/21 01:02:01;;;;;;;0.30;0.10;;;20.80;39.20;;;;;;5068723;28;20061;-55
2021/01/21 01:04:26;;;;;;;0.30;0.10;;;20.80;39.20;;;;;;5069564;28;20413;-53
2021/01/21 01:06:52;;;;;;;0.63;0.17;;;20.80;39.30;;;;;;5067928;28;20039;-56
2021/01/21 01:09:18;;;;;;;0.43;0.08;;;20.70;39.30;;;;;;5069589;28;20033;-54
2021/01/21 01:11:44;;;;;;;0.20;0.08;;;20.70;39.30;;;;;;5083616;28;20127;-55
2021/01/21 01:14:09;;;;;;;0.68;0.10;;;20.70;39.20;;;;;;5071549;28;20119;-54
2021/01/21 01:16:35;;;;;;;1.60;0.13;;;20.70;39.20;;;;;;5070350;28;20051;-54
2021/01/21 01:19:01;;;;;;;0.22;0.10;;;20.70;39.20;;;;;;5070339;28;20107;-54
2021/01/21 01:21:27;;;;;;;0.60;0.10;;;20.60;39.10;;;;;;5071209;28;20028;-54
2021/01/21 01:23:52;;;;;;;0.20;0.10;;;20.60;39.20;;;;;;5070689;28;20029;-55
2021/01/21 01:26:21;;;;;;;0.22;0.00;;;20.60;39.10;;;;;;5070675;28;20017;-55
2021/01/21 01:28:47;;;;;;;0.40;0.10;;;20.60;39.10;;;;;;5069853;28;20029;-54
2021/01/21 01:31:13;;;;;;;0.30;0.00;;;20.60;39.10;;;;;;5069643;28;20036;-54
2021/01/21 01:33:39;;;;;;;0.43;0.00;;;20.60;39.20;;;;;;5070846;28;20060;-54
2021/01/21 01:36:05;;;;;;;0.60;0.10;;;20.60;39.20;;;;;;5070552;28;20102;-56
2021/01/21 01:38:30;;;;;;;0.98;0.00;;;20.60;39.10;;;;;;5069902;28;20497;-55
2021/01/21 01:40:56;;;;;;;0.20;0.00;;;20.60;39.10;;;;;;5070512;28;20032;-53
2021/01/21 01:43:21;;;;;;;0.82;0.10;;;20.50;39.10;;;;;;5067712;28;20115;-53
2021/01/21 01:45:47;;;;;;;0.40;0.10;;;20.50;39.00;;;;;;5070371;28;20082;-54
2021/01/21 01:48:13;;;;;;;0.50;0.10;;;20.50;39.10;;;;;;5069688;28;20086;-54
2021/01/21 01:50:39;;;;;;;0.30;0.00;;;20.50;39.00;;;;;;5068960;28;20028;-54
2021/01/21 01:53:06;;;;;;;0.65;0.08;;;20.50;39.00;;;;;;5068495;28;20032;-53
2021/01/21 01:55:32;;;;;;;1.00;0.10;;;20.50;39.10;;;;;;5069801;28;20457;-55
2021/01/21 01:57:58;;;;;;;0.40;0.10;;;20.50;39.00;;;;;;5069003;28;20032;-55
2021/01/21 02:00:24;;;;;;;2.17;0.10;;;20.50;39.10;;;;;;5067959;28;20036;-54
2021/01/21 02:02:51;;;;;;;0.50;0.10;;;20.50;39.10;;;;;;5067056;28;20028;-55
2021/01/21 02:05:17;;;;;;;0.52;0.10;;;20.40;39.00;;;;;;5068677;28;20058;-55
2021/01/21 02:07:43;;;;;;;0.40;0.03;;;20.40;39.00;;;;;;5069185;28;20096;-55
2021/01/21 02:10:11;;;;;;;0.38;0.00;;;20.40;39.00;;;;;;5068565;28;20044;-55
2021/01/21 02:12:58;;;;;;;0.20;0.00;;;20.40;39.00;;;;;;5066638;28;20037;-55
2021/01/21 02:15:48;;;;;;;0.82;0.10;;;20.40;38.90;;;;;;5069353;28;20025;-54
2021/01/21 02:18:20;;;;;;;0.82;0.10;;;20.40;38.90;;;;;;5067334;28;20082;-52
2021/01/21 02:21:06;;;;;;;0.25;0.08;;;20.40;39.00;;;;;;5067654;28;20063;-54
2021/01/21 02:24:06;;;;;;;0.28;0.00;;;20.40;38.90;;;;;;5068363;28;20033;-55
2021/01/21 02:26:42;;;;;;;0.82;0.03;;;20.30;38.80;;;;;;5068779;28;20128;-54
2021/01/21 02:29:18;;;;;;;1.05;0.10;;;20.40;38.80;;;;;;5068444;28;20832;-55
2021/01/21 02:32:05;;;;;;;0.25;0.00;;;20.30;38.80;;;;;;5067176;28;20075;-54
2021/01/21 02:34:40;;;;;;;0.90;0.10;;;20.30;38.80;;;;;;5068100;28;20051;-53
2021/01/21 02:37:19;;;;;;;0.90;0.00;;;20.30;38.80;;;;;;5066752;28;20032;-53
2021/01/21 02:39:48;;;;;;;0.10;0.00;;;20.30;38.70;;;;;;5068853;28;20031;-54
2021/01/21 02:42:14;;;;;;;0.30;0.00;;;20.30;38.70;;;;;;5069321;28;20111;-53
2021/01/21 02:44:40;;;;;;;0.30;0.00;;;20.30;38.70;;;;;;5069085;28;20112;-52
2021/01/21 02:47:06;;;;;;;0.30;0.05;;;20.20;38.60;;;;;;5067339;28;20043;-52
2021/01/21 02:49:32;;;;;;;0.20;0.00;;;20.20;38.60;;;;;;5070027;28;20036;-54
2021/01/21 02:52:01;;;;;;;0.68;0.00;;;20.30;38.70;;;;;;5065264;28;20111;-54
2021/01/21 02:54:30;;;;;;;1.13;0.20;;;20.20;38.70;;;;;;5068552;28;20127;-53
2021/01/21 02:57:08;;;;;;;1.38;0.10;;;20.30;38.70;;;;;;5065914;28;20028;-54
2021/01/21 02:59:39;;;;;;;0.43;0.00;;;20.20;38.60;;;;;;5069228;28;20059;-53
2021/01/21 03:02:07;;;;;;;2.15;0.03;;;20.20;38.50;;;;;;5066767;28;20653;-55
2021/01/21 03:04:36;;;;;;;0.20;0.00;;;20.20;38.60;;;;;;5050934;28;20141;-52
2021/01/21 03:07:03;;;;;;;0.65;0.08;;;20.20;38.70;;;;;;5066142;28;20388;-54
2021/01/21 03:09:29;;;;;;;0.10;0.05;;;20.20;38.60;;;;;;5066532;28;20036;-54
2021/01/21 03:12:19;;;;;;;0.43;0.10;;;20.20;38.60;;;;;;5067248;28;20043;-55
2021/01/21 03:14:46;;;;;;;0.10;0.00;;;20.20;38.60;;;;;;5069431;28;20040;-53
2021/01/21 03:17:12;;;;;;;0.10;0.00;;;20.20;38.60;;;;;;5068323;28;20029;-54
2021/01/21 03:19:37;;;;;;;0.15;0.00;;;20.10;38.50;;;;;;5068444;28;20064;-54
2021/01/21 03:22:03;;;;;;;1.10;0.10;;;20.10;38.50;;;;;;5068131;28;20054;-52
2021/01/21 03:24:29;;;;;;;0.40;0.10;;;20.10;38.60;;;;;;5068865;28;20032;-54
2021/01/21 03:26:54;;;;;;;1.48;0.03;;;20.20;38.70;;;;;;5069168;28;20044;-54
2021/01/21 03:29:20;;;;;;;0.30;0.00;;;20.10;38.50;;;;;;5069040;28;20036;-53
2021/01/21 03:31:46;;;;;;;0.32;0.00;;;20.10;38.50;;;;;;5067386;28;20538;-53
2021/01/21 03:34:11;;;;;;;0.17;0.00;;;20.10;38.60;;;;;;5069565;28;20458;-55
2021/01/21 03:36:37;;;;;;;0.20;0.00;;;20.10;38.60;;;;;;5068567;28;20025;-53
2021/01/21 03:39:03;;;;;;;0.82;0.10;;;20.10;38.60;;;;;;5069697;28;20035;-53
2021/01/21 03:41:28;;;;;;;0.22;0.10;;;20.00;38.50;;;;;;5065454;28;20021;-54
2021/01/21 03:43:54;;;;;;;0.22;0.00;;;20.10;38.60;;;;;;5069373;28;20031;-54
2021/01/21 03:46:20;;;;;;;0.25;0.00;;;20.00;38.50;;;;;;5069284;28;20222;-55
2021/01/21 03:48:46;;;;;;;0.32;0.00;;;20.10;38.60;;;;;;5068195;28;20103;-54
2021/01/21 03:51:12;;;;;;;0.40;0.10;;;20.10;38.60;;;;;;5068025;28;20043;-54
2021/01/21 03:53:37;;;;;;;0.73;0.08;;;20.10;38.70;;;;;;5066475;28;20024;-53
2021/01/21 03:56:03;;;;;;;0.45;0.00;;;20.00;38.60;;;;;;5068997;28;20028;-53
2021/01/21 03:58:29;;;;;;;0.10;0.00;;;20.00;38.50;;;;;;5067767;28;20040;-55
2021/01/21 04:00:54;;;;;;;0.35;0.05;;;20.00;38.60;;;;;;5066882;28;20082;-54
2021/01/21 04:03:20;;;;;;;0.20;0.00;;;20.00;38.60;;;;;;5065903;28;20035;-54
2021/01/21 04:05:45;;;;;;;0.13;0.00;;;20.00;38.60;;;;;;5067315;28;20089;-53
2021/01/21 04:08:11;;;;;;;0.20;0.00;;;20.00;38.50;;;;;;5071141;28;20128;-54
2021/01/21 04:10:36;;;;;;;0.13;0.00;;;20.00;38.50;;;;;;5071367;28;20036;-55
2021/01/21 04:13:02;;;;;;;1.35;0.00;;;20.00;39.10;;;;;;5071311;28;20389;-53
2021/01/21 04:15:28;;;;;;;0.57;0.00;;;20.00;38.70;;;;;;5070767;28;20041;-53
2021/01/21 04:17:53;;;;;;;0.20;0.00;;;20.00;38.70;;;;;;5071169;28;20032;-54
2021/01/21 04:20:19;;;;;;;1.45;0.05;;;20.00;38.70;;;;;;5071980;28;20077;-55
2021/01/21 04:22:45;;;;;;;0.15;0.00;;;19.90;38.70;;;;;;5066248;28;20036;-55
2021/01/21 04:25:11;;;;;;;0.17;0.03;;;20.00;38.70;;;;;;5071981;28;20397;-53
2021/01/21 04:27:36;;;;;;;0.45;0.00;;;19.90;38.70;;;;;;5071508;28;20057;-54
2021/01/21 04:30:03;;;;;;;1.15;0.00;;;20.00;38.70;;;;;;5071161;28;20047;-54
2021/01/21 04:32:28;;;;;;;0.55;0.05;;;20.00;38.80;;;;;;5052270;28;20028;-54
2021/01/21 04:34:54;;;;;;;0.10;0.00;;;20.00;38.70;;;;;;5071623;28;20050;-54
2021/01/21 04:37:19;;;;;;;0.55;0.00;;;19.90;38.70;;;;;;5070390;28;20461;-54
2021/01/21 04:39:45;;;;;;;0.17;0.00;;;19.90;38.70;;;;;;5071830;28;20084;-54
2021/01/21 04:42:10;;;;;;;0.20;0.00;;;19.90;38.70;;;;;;5070275;28;20115;-54
2021/01/21 04:44:36;;;;;;;0.38;0.00;;;19.90;38.70;;;;;;5071808;28;20024;-54
2021/01/21 04:47:01;;;;;;;0.20;0.00;;;19.90;38.70;;;;;;5069734;28;20032;-52
2021/01/21 04:49:29;;;;;;;0.10;0.00;;;19.90;38.70;;;;;;5071779;28;20032;-55
2021/01/21 04:52:00;;;;;;;0.80;0.00;;;19.90;38.80;;;;;;5068256;28;20401;-55
2021/01/21 04:54:36;;;;;;;0.30;0.00;;;19.90;38.80;;;;;;5068573;28;20032;-54
2021/01/21 04:57:04;;;;;;;0.00;0.00;;;19.90;38.70;;;;;;5066508;28;20381;-54
2021/01/21 04:59:36;;;;;;;0.10;0.00;;;19.90;38.80;;;;;;5070786;28;20040;-53
2021/01/21 05:02:03;;;;;;;0.13;0.00;;;19.80;38.80;;;;;;5069347;28;20485;-54
2021/01/21 05:04:29;;;;;;;0.05;0.00;;;19.80;38.70;;;;;;5069947;28;20112;-55
2021/01/21 05:06:55;;;;;;;0.13;0.00;;;19.80;38.80;;;;;;5069625;28;20020;-55
2021/01/21 05:09:21;;;;;;;0.10;0.00;;;19.80;38.70;;;;;;5070631;28;20048;-54
2021/01/21 05:11:47;;;;;;;0.40;0.00;;;19.80;38.80;;;;;;5070276;28;20104;-52
2021/01/21 05:14:13;;;;;;;0.40;0.00;;;19.80;38.80;;;;;;5070870;28;20024;-54
2021/01/21 05:16:39;;;;;;;0.70;0.00;;;19.80;38.80;;;;;;5071094;28;20032;-54
2021/01/21 05:19:05;;;;;;;4.15;0.00;;;19.80;38.80;;;;;;5069814;28;20500;-54
2021/01/21 05:21:31;;;;;;;0.15;0.00;;;19.80;38.80;;;;;;5069530;28;20103;-54
2021/01/21 05:23:57;;;;;;;0.10;0.00;;;19.70;38.80;;;;;;5068949;28;20078;-55
2021/01/21 05:26:24;;;;;;;0.17;0.00;;;19.80;38.80;;;;;;5069619;28;20036;-55
2021/01/21 05:28:51;;;;;;;0.52;0.00;;;19.80;38.80;;;;;;5052718;28;20029;-56
2021/01/21 05:31:17;;;;;;;0.20;0.00;;;19.80;38.80;;;;;;5067411;28;20482;-54
2021/01/21 05:33:44;;;;;;;0.22;0.00;;;19.80;38.90;;;;;;5069560;28;20098;-56
2021/01/21 05:36:13;;;;;;;3.50;0.00;;;19.80;38.90;;;;;;5068399;28;20448;-56
2021/01/21 05:38:54;;;;;;;0.20;0.00;;;19.70;38.90;;;;;;5070039;28;20017;-55
2021/01/21 05:41:19;;;;;;;0.10;0.00;;;19.80;39.00;;;;;;5069683;28;20520;-56
2021/01/21 05:43:48;;;;;;;0.45;0.00;;;19.70;39.10;;;;;;5067284;28;20021;-56
2021/01/21 05:46:13;;;;;;;1.80;0.08;;;19.70;39.00;;;;;;5070464;28;20043;-56
2021/01/21 05:48:39;;;;;;;0.10;0.00;;;19.70;39.00;;;;;;5068594;28;20036;-55
2021/01/21 05:51:05;;;;;;;0.13;0.00;;;19.70;39.00;;;;;;5069570;28;20055;-56
2021/01/21 05:53:31;;;;;;;0.03;0.00;;;19.70;38.80;;;;;;5066781;28;20025;-54
2021/01/21 05:55:57;;;;;;;0.05;0.00;;;19.70;38.70;;;;;;5068578;28;20036;-57
2021/01/21 05:58:22;;;;;;;0.10;0.00;;;19.70;38.70;;;;;;5069056;28;20025;-56
2021/01/21 06:00:49;;;;;;;0.10;0.00;;;19.70;38.60;;;;;;5070495;28;20029;-55
2021/01/21 06:03:15;;;;;;;0.20;0.00;;;19.70;38.60;;;;;;5066812;28;20025;-55
2021/01/21 06:05:40;;;;;;;0.80;0.00;;;19.70;38.60;;;;;;5050853;28;20035;-53
2021/01/21 06:08:06;;;;;;;0.10;0.00;;;19.70;38.60;;;;;;5068046;28;20028;-56
2021/01/21 06:10:34;;;;;;;0.50;0.20;;;19.60;38.60;;;;;;5069117;28;20409;-56
2021/01/21 06:13:05;;;;;;;0.30;0.00;;;19.60;38.60;;;;;;5068890;28;20047;-57
2021/01/21 06:15:32;;;;;;;0.15;0.00;;;19.60;38.50;;;;;;5068347;28;20040;-55
2021/01/21 06:17:57;;;;;;;0.17;0.00;;;19.60;38.60;;;;;;5069529;28;20024;-56
2021/01/21 06:20:23;;;;;;;0.98;0.10;;;19.60;38.70;;;;;;5069188;28;20028;-55
2021/01/21 06:22:53;;;;;;;0.00;0.00;;;19.60;38.70;;;;;;5068473;28;20028;-56
2021/01/21 06:25:21;;;;;;;0.00;0.00;;;19.60;38.70;;;;;;5065058;28;20494;-55
2021/01/21 06:27:47;;;;;;;0.50;0.00;;;19.60;38.70;;;;;;5077556;22;20254;-50
2021/01/21 06:30:15;;;;;;;0.10;0.00;;;19.70;38.80;;;;;;5034305;28;20040;-46
2021/01/21 06:33:01;;;;;;;0.20;0.00;;;19.80;38.60;;;;;;5036097;28;20526;-45
2021/01/21 06:35:32;;;;;;;0.30;0.00;;;19.90;38.30;;;;;;5036734;28;20413;-48
2021/01/21 06:38:07;;;;;;;0.10;0.00;;;20.10;38.10;;;;;;5034010;28;20044;-49
2021/01/21 06:40:35;;;;;;;0.63;0.00;;;20.20;38.00;;;;;;5036503;28;20374;-48
2021/01/21 06:43:16;;;;;;;0.00;0.00;;;20.30;37.90;;;;;;5034681;28;20032;-48
2021/01/21 06:45:43;;;;;;;0.03;0.00;;;20.40;37.90;;;;;;5036032;28;20060;-50
2021/01/21 06:48:10;;;;;;;0.22;0.00;;;20.40;37.80;;;;;;5036447;28;20040;-49
2021/01/21 06:50:40;;;;;;;0.10;0.00;;;20.50;37.80;;;;;;5036056;28;20037;-50
2021/01/21 06:53:08;;;;;;;0.00;0.00;;;20.50;37.80;;;;;;5034495;28;20038;-49
2021/01/21 06:55:35;;;;;;;0.15;0.00;;;20.60;37.80;;;;;;5037943;28;20033;-50
2021/01/21 06:58:02;;;;;;;0.20;0.00;;;20.50;37.70;;;;;;5035956;28;20512;-50
2021/01/21 07:00:40;;;;;;;0.00;0.00;;;20.60;37.70;;;;;;5036301;28;20111;-47
2021/01/21 07:03:07;;;;;;;0.00;0.00;;;20.60;37.80;;;;;;5033467;28;20036;-45
2021/01/21 07:05:33;;;;;;;0.10;0.00;;;20.60;37.80;;;;;;5032221;28;20024;-47
2021/01/21 07:08:00;;;;;;;0.10;0.00;;;20.60;37.80;;;;;;5030102;28;20471;-52
2021/01/21 07:10:28;;;;;;;0.10;0.00;;;20.60;37.90;;;;;;5035208;28;20526;-49
2021/01/21 07:12:55;;;;;;;2.28;0.00;;;20.60;38.00;;;;;;5036476;28;20036;-49
2021/01/21 07:15:35;;;;;;;0.10;0.00;;;20.60;38.00;;;;;;5033323;28;20044;-48
2021/01/21 07:18:05;;;;;;;0.03;0.00;;;20.60;38.30;;;;;;5035858;28;20858;-49
2021/01/21 07:20:33;;;;;;;0.63;0.10;;;20.60;38.40;;;;;;5033911;28;20036;-50
2021/01/21 07:23:04;;;;;;;0.20;0.00;;;20.60;38.40;;;;;;5034570;28;20086;-47
2021/01/21 07:25:30;;;;;;;0.15;0.00;;;20.60;38.40;;;;;;5035038;28;20393;-48
2021/01/21 07:27:56;;;;;;;0.20;0.00;;;20.60;38.30;;;;;;5034592;28;20041;-47
2021/01/21 07:30:26;;;;;;;0.25;0.00;;;20.60;38.50;;;;;;5035424;28;20128;-48
2021/01/21 07:33:20;;;;;;;0.20;0.00;;;20.60;38.40;;;;;;5033361;28;20029;-46
2021/01/21 07:35:47;;;;;;;1.88;0.00;;;20.60;38.50;;;;;;5034243;28;20017;-49
2021/01/21 07:38:52;;;;;;;0.50;0.10;;;20.50;38.50;;;;;;5033284;28;20024;-50
2021/01/21 07:41:52;;;;;;;0.35;0.00;;;20.50;38.40;;;;;;5037765;28;20029;-45
2021/01/21 07:44:18;;;;;;;0.28;0.00;;;20.50;38.50;;;;;;5041460;28;20098;-50
2021/01/21 07:46:44;;;;;;;3.10;0.10;;;20.50;38.50;;;;;;5042284;28;20493;-50
2021/01/21 07:49:27;;;;;;;0.25;0.00;;;20.40;38.60;;;;;;5040583;28;20596;-48
2021/01/21 07:52:03;;;;;;;3.05;0.00;;;20.40;38.60;;;;;;5040381;28;20030;-50
2021/01/21 07:54:30;;;;;;;0.10;0.00;;;20.40;38.50;;;;;;5040476;28;20041;-46
2021/01/21 07:56:55;;;;;;;0.60;0.00;;;20.40;38.60;;;;;;5042171;28;20029;-48
2021/01/21 07:59:21;;;;;;;0.68;0.00;;;20.30;38.70;;;;;;5041614;28;20034;-52
2021/01/21 08:02:00;;;;;;;0.20;0.00;;;20.30;38.70;;;;;;5039157;28;20024;-44
2021/01/21 08:04:26;;;;;;;0.80;0.00;;;20.30;38.70;;;;;;5040410;28;20124;-48
2021/01/21 08:06:57;;;;;;;0.40;0.03;;;20.30;38.70;;;;;;5039332;28;20499;-52
2021/01/21 08:09:23;;;;;;;1.00;0.10;;;20.30;39.00;;;;;;5039548;28;20025;-52
2021/01/21 08:11:51;;;;;;;4.07;0.10;;;20.30;38.90;;;;;;5041482;28;20035;-49
2021/01/21 08:14:17;;;;;;;0.95;0.10;;;20.20;39.00;;;;;;5039686;28;20056;-52
2021/01/21 08:16:44;;;;;;;0.45;0.00;;;20.20;39.00;;;;;;5038764;28;20066;-53
2021/01/21 08:19:10;;;;;;;0.65;0.10;;;20.20;39.10;;;;;;5041504;28;20712;-52
2021/01/21 08:21:35;;;;;;;0.10;0.00;;;20.20;39.00;;;;;;5041687;28;20033;-49
2021/01/21 08:24:03;;;;;;;1.00;0.10;;;20.20;39.10;;;;;;5041015;28;20031;-51
2021/01/21 08:26:30;;;;;;;1.42;0.00;;;20.10;39.00;;;;;;5039483;28;20030;-53
2021/01/21 08:28:57;;;;;;;1.25;0.20;;;20.10;39.10;;;;;;5041233;28;20025;-53
2021/01/21 08:31:47;;;;;;;0.43;0.00;;;20.10;39.10;;;;;;5042001;28;20028;-51
2021/01/21 08:34:23;;;;;;;0.35;0.00;;;20.10;39.10;;;;;;5041418;28;20041;-54
2021/01/21 08:36:49;;;;;;;1.25;0.10;;;20.10;39.10;;;;;;5041350;28;20025;-47
2021/01/21 08:39:15;;;;;;;0.50;0.00;;;20.20;39.10;;;;;;5040767;28;20073;-50
2021/01/21 08:41:44;;;;;;;1.10;0.05;;;20.20;39.10;;;;;;5043529;28;20100;-47
2021/01/21 08:44:15;;;;;;;2.53;0.10;;;20.30;39.10;;;;;;5039735;28;20099;-51
2021/01/21 08:46:41;;;;;;;0.32;0.10;;;20.40;39.20;;;;;;5038507;28;20538;-47
2021/01/21 08:49:11;;;;;;;1.38;0.20;;;20.40;39.20;;;;;;5049727;28;20127;-45
2021/01/21 08:51:41;;;;;;;0.43;0.00;;;20.50;39.40;;;;;;5042405;28;20040;-46
2021/01/21 08:54:17;;;;;;;0.80;0.05;;;20.70;39.20;;;;;;5038112;28;20073;-48
2021/01/21 08:56:44;;;;;;;1.65;0.00;;;20.80;39.00;;;;;;5038326;28;20068;-50
2021/01/21 08:59:27;;;;;;;0.30;0.00;;;20.90;38.90;;;;;;5036332;28;20057;-46
2021/01/21 09:01:53;;;;;;;0.43;0.10;;;21.10;39.00;;;;;;5037021;28;20039;-46
2021/01/21 09:04:38;;;;;;;0.57;0.10;;;21.20;39.10;;;;;;5039840;28;20037;-48
2021/01/21 09:07:09;;;;;;;1.73;0.00;;;21.30;39.00;;;;;;5038521;28;20036;-49
2021/01/21 09:09:37;;;;;;;0.85;0.10;;;21.30;39.00;;;;;;5036658;28;20040;-46
2021/01/21 09:12:16;;;;;;;1.38;0.10;;;21.40;38.90;;;;;;5035763;28;20056;-48
2021/01/21 09:14:42;;;;;;;0.30;0.10;;;21.40;39.00;;;;;;5037658;28;20033;-46
2021/01/21 09:17:17;;;;;;;2.45;0.10;;;21.40;39.00;;;;;;5038024;28;20033;-54
2021/01/21 09:19:44;;;;;;;0.75;0.00;;;21.50;39.10;;;;;;5039000;28;20081;-45
2021/01/21 09:22:15;;;;;;;0.30;0.10;;;21.50;39.00;;;;;;5037236;28;20061;-49
2021/01/21 09:25:04;;;;;;;0.30;0.00;;;21.60;39.00;;;;;;5039021;28;20029;-51
2021/01/21 09:27:33;;;;;;;1.08;0.10;;;21.60;39.00;;;;;;5043199;28;20390;-49
2021/01/21 09:30:12;;;;;;;0.80;0.10;;;21.70;39.10;;;;;;5038748;28;20025;-53
2021/01/21 09:32:39;;;;;;;1.05;0.10;;;21.70;39.20;;;;;;5036659;28;20160;-50
2021/01/21 09:35:08;;;;;;;1.38;0.10;;;21.70;39.20;;;;;;5036295;28;20037;-46
2021/01/21 09:37:39;;;;;;;0.40;0.10;;;21.70;39.30;;;;;;5034621;28;20026;-55
2021/01/21 09:40:07;;;;;;;0.40;0.10;;;21.70;39.30;;;;;;5038585;28;20091;-49
2021/01/21 09:42:33;;;;;;;3.10;0.10;;;21.70;39.40;;;;;;5038258;28;20061;-51
2021/01/21 09:44:59;;;;;;;0.38;0.00;;;21.70;39.30;;;;;;5037224;28;20060;-51
2021/01/21 09:47:26;;;;;;;0.70;0.10;;;21.70;39.40;;;;;;5038229;28;20039;-48
2021/01/21 09:49:51;;;;;;;0.60;0.00;;;21.70;39.40;;;;;;5035965;28;20033;-47
2021/01/21 09:52:17;;;;;;;1.08;0.15;;;21.70;39.50;;;;;;5038332;28;20649;-48
2021/01/21 09:54:43;;;;;;;1.05;0.08;;;21.60;39.50;;;;;;5035715;28;20128;-49
2021/01/21 09:57:09;;;;;;;1.75;0.00;;;21.60;39.60;;;;;;5036947;28;20037;-49
2021/01/21 09:59:35;;;;;;;3.95;0.00;;;21.60;39.70;;;;;;5036391;28;20308;-48
2021/01/21 10:02:01;;;;;;;1.00;0.00;;;21.60;39.70;;;;;;5035206;28;20112;-50
2021/01/21 10:04:26;;;;;;;0.70;0.00;;;21.60;39.70;;;;;;5036385;28;20553;-47
2021/01/21 10:06:52;;;;;;;3.10;0.10;;;21.60;39.80;;;;;;5039218;28;20033;-45
2021/01/21 10:09:18;;;;;;;1.98;0.05;;;21.60;39.80;;;;;;5034887;28;20068;-50
2021/01/21 10:11:44;;;;;;;0.28;0.00;;;21.60;39.90;;;;;;5038355;28;20033;-50
2021/01/21 10:14:10;;;;;;;0.40;0.10;;;21.60;39.80;;;;;;5034452;28;20059;-48
2021/01/21 10:16:35;;;;;;;0.40;0.00;;;21.50;39.90;;;;;;5035310;28;20037;-47
2021/01/21 10:19:01;;;;;;;2.10;0.10;;;21.60;40.00;;;;;;5033872;28;20033;-50
2021/01/21 10:21:28;;;;;;;4.53;0.17;;;21.60;40.00;;;;;;5034426;28;20563;-50
2021/01/21 10:23:54;;;;;;;1.17;0.10;;;21.50;40.20;;;;;;5034022;28;20063;-49
2021/01/21 10:26:20;;;;;;;1.67;0.15;;;21.50;40.30;;;;;;5032032;28;20441;-51
2021/01/21 10:28:46;;;;;;;0.80;0.10;;;21.50;40.00;;;;;;5036401;28;20033;-47
2021/01/21 10:31:12;;;;;;;0.30;0.10;;;21.50;40.00;;;;;;5033077;28;20497;-47
2021/01/21 10:33:38;;;;;;;1.80;0.10;;;21.50;40.00;;;;;;5030748;28;20038;-48
2021/01/21 10:36:05;;;;;;;0.45;0.08;;;21.50;40.00;;;;;;5036514;28;20024;-46
2021/01/21 10:38:30;;;;;;;0.50;0.00;;;21.50;40.00;;;;;;5033714;28;20029;-52
2021/01/21 10:40:56;;;;;;;1.27;0.10;;;21.50;40.10;;;;;;5033384;28;20090;-49
2021/01/21 10:43:22;;;;;;;0.40;0.10;;;21.50;40.20;;;;;;5036749;28;20413;-48
2021/01/21 10:45:47;;;;;;;0.60;0.10;;;21.50;40.10;;;;;;5035192;28;20037;-44
2021/01/21 10:48:13;;;;;;;1.75;0.17;;;21.40;40.00;;;;;;5034720;28;20136;-53
2021/01/21 10:50:38;;;;;;;1.98;0.10;;;21.50;40.10;;;;;;5035748;28;20059;-51
2021/01/21 10:53:04;;;;;;;0.95;0.10;;;21.50;40.30;;;;;;5032675;28;20033;-46
2021/01/21 10:55:29;;;;;;;0.40;0.10;;;21.40;40.10;;;;;;5032254;28;20114;-45
2021/01/21 10:57:55;;;;;;;0.55;0.10;;;21.40;40.20;;;;;;5035957;28;20025;-50
2021/01/21 11:00:21;;;;;;;1.63;0.00;;;21.40;40.20;;;;;;5037854;28;20423;-48
2021/01/21 11:02:47;;;;;;;0.65;0.10;;;21.40;40.20;;;;;;5035099;28;20077;-48
2021/01/21 11:05:14;;;;;;;0.25;0.00;;;21.40;40.20;;;;;;5034860;28;20034;-49
2021/01/21 11:07:40;;;;;;;0.63;0.10;;;21.40;40.20;;;;;;5034672;28;20033;-50
2021/01/21 11:10:06;;;;;;;1.05;0.10;;;21.40;40.30;;;;;;5033038;28;20024;-48
2021/01/21 11:12:32;;;;;;;1.42;0.10;;;21.40;40.40;;;;;;5035304;28;20025;-52
2021/01/21 11:14:57;;;;;;;0.82;0.10;;;21.40;40.40;;;;;;5036097;28;20044;-53
2021/01/21 11:17:23;;;;;;;0.50;0.10;;;21.40;40.30;;;;;;5033117;28;20033;-47
2021/01/21 11:19:49;;;;;;;0.50;0.10;;;21.30;40.30;;;;;;5034101;28;20091;-48
2021/01/21 11:22:14;;;;;;;0.55;0.10;;;21.30;40.30;;;;;;5034349;28;20021;-50
2021/01/21 11:24:40;;;;;;;0.73;0.03;;;21.30;40.20;;;;;;5036414;28;20033;-51
2021/01/21 11:27:06;;;;;;;1.90;0.00;;;21.30;40.30;;;;;;5037471;28;20047;-49
2021/01/21 11:29:31;;;;;;;0.30;0.10;;;21.30;40.50;;;;;;5035013;28;20613;-45
2021/01/21 11:31:57;;;;;;;2.33;0.00;;;21.30;40.50;;;;;;5036852;28;20032;-47
2021/01/21 11:34:22;;;;;;;5.18;0.00;;;21.30;40.60;;;;;;5033850;28;20033;-47
2021/01/21 11:36:50;;;;;;;6.15;0.22;;;21.30;40.40;;;;;;5036286;28;20029;-47
2021/01/21 11:39:15;;;;;;;0.50;0.20;;;21.20;40.30;;;;;;5035669;28;20112;-51
2021/01/21 11:41:41;;;;;;;0.75;0.03;;;21.20;40.60;;;;;;5036061;28;21023;-51
2021/01/21 11:44:07;;;;;;;2.67;0.10;;;21.30;40.60;;;;;;5034081;28;20024;-48
2021/01/21 11:46:32;;;;;;;1.45;0.20;;;21.40;40.40;;;;;;5036665;28;20033;-47
2021/01/21 11:48:58;;;;;;;0.38;0.00;;;21.60;40.10;;;;;;5036468;28;20055;-49
2021/01/21 11:51:23;;;;;;;1.45;0.10;;;21.70;40.10;;;;;;5036386;28;20033;-50
2021/01/21 11:53:49;;;;;;;0.43;0.00;;;21.80;39.90;;;;;;5035460;28;20025;-50
2021/01/21 11:56:16;;;;;;;0.75;0.10;;;21.90;39.90;;;;;;5034980;28;20034;-46
2021/01/21 11:58:41;;;;;;;0.45;0.10;;;21.90;39.80;;;;;;5034951;28;20025;-47
2021/01/21 12:01:07;;;;;;;0.20;0.00;;;22.00;39.80;;;;;;5033525;28;20107;-45
2021/01/21 12:03:33;;;;;;;4.93;0.10;;;22.00;39.70;;;;;;5033854;28;20057;-45
2021/01/21 12:06:00;;;;;;;0.82;0.10;;;22.10;39.80;;;;;;5032339;28;20029;-52
2021/01/21 12:08:25;;;;;;;0.30;0.00;;;22.10;39.80;;;;;;5034193;28;20466;-51
2021/01/21 12:10:51;;;;;;;0.28;0.00;;;22.10;39.80;;;;;;5034424;28;20046;-50
2021/01/21 12:13:17;;;;;;;0.50;0.10;;;22.10;39.70;;;;;;5033293;28;20080;-49
2021/01/21 12:15:43;;;;;;;1.75;0.10;;;22.10;39.90;;;;;;5032622;28;20075;-49
2021/01/21 12:18:09;;;;;;;1.30;0.10;;;22.10;40.00;;;;;;5034529;28;20057;-50
2021/01/21 12:20:34;;;;;;;0.93;0.40;;;22.20;40.10;;;;;;5035392;28;20071;-49
2021/01/21 12:23:00;;;;;;;0.82;0.10;;;22.20;40.10;;;;;;5035020;28;20094;-49
2021/01/21 12:25:25;;;;;;;0.50;0.00;;;22.20;40.00;;;;;;5033466;28;20037;-50
2021/01/21 12:27:51;;;;;;;1.92;0.10;;;22.20;39.90;;;;;;5032826;28;20082;-49
2021/01/21 12:30:17;;;;;;;1.52;0.10;;;22.20;40.00;;;;;;5037445;28;20029;-51
2021/01/21 12:32:42;;;;;;;0.32;0.00;;;22.20;40.10;;;;;;5038335;28;20054;-50
2021/01/21 12:35:08;;;;;;;2.50;0.10;;;22.20;40.00;;;;;;5039631;28;20025;-56
2021/01/21 12:37:34;;;;;;;0.60;0.00;;;22.20;40.10;;;;;;5037205;28;20026;-51
2021/01/21 12:40:00;;;;;;;0.13;0.00;;;22.20;40.10;;;;;;5036260;28;20040;-47
2021/01/21 12:42:26;;;;;;;0.60;0.00;;;22.20;40.10;;;;;;5037515;28;20064;-50
2021/01/21 12:44:52;;;;;;;1.48;0.10;;;22.10;40.20;;;;;;5037979;28;20060;-47
2021/01/21 12:47:17;;;;;;;0.80;0.10;;;22.10;40.10;;;;;;5038519;28;20057;-50
2021/01/21 12:49:43;;;;;;;4.95;0.43;;;22.10;40.20;;;;;;5036176;28;20029;-47
2021/01/21 12:52:09;;;;;;;0.65;0.00;;;22.10;40.30;;;;;;5038232;28;20041;-54